SBOSBO PDX / KPDX
Speedbird OnlineSpeedbird Online PDX / KPDX

Portland International Airport
15:10 10.5°C

Location Portland, United States
Latitude: 45.58869934
Longitude: -122.5979996
Web Wikipedia
Altitude 9 Meter / 31 Feet
Distance 7,908 KM / 4,914 Miles
from London.
Time Zone UTC -8 hours (America/Los_Angeles)
Codes IATA: PDX
ICAO: KPDX
Currency £1 equals USD 1.21
Runways
RunwayLength (m)Surface
032134Asphalt
10L2438Asphalt
10R3353Asphalt
212134Asphalt
28L3353Asphalt
28R2438Asphalt
Radio
TypeDescriptionFrequency
ACP939 ARW COMD POST124.35
APPAPP118.1
APPAPP29.92
ATISATIS120.625
CLDCLNC DEL120.125
DEPDEP118.1
GNDGND121.9
OPSANG BASE OPS28.05
TWRTWR118.7
UNICUNICOM122.95
Live ATC
METAR KPDX 081353Z 34003KT 10SM FEW017 SCT060 BKN250 04/02 A3050 RMK AO2 SLP328 T00440022
TAF KPDX 081450Z 0815/0912 VRB05KT P6SM FEW020 SCT050 BKN250 FM091100 09007KT P6SM BKN100
Weather As Of 08 Feb 2023 15:05
Description Broken clouds
Wind 8 km/h from South-West (225°)
Cloud Cover 75%
Precipitation Rain: none, Snow: none
Sunrise 07:22
Sunset 17:26
Lounges Alaska Lounge, Main Terminal
Rotations During the last 90 days there were
51 flights from LHR
55 flights to LHR



Support Speedbird Online

© 2017-2023 Speedbird Online